Date,TemperatureHighF,TemperatureAvgF,TemperatureLowF,DewpointHighF,DewpointAvgF,DewpointLowF,HumidityHigh,HumidityAvg,HumidityLow,PressureMaxIn,PressureMinIn,WindSpeedMaxMPH,WindSpeedAvgMPH,GustSpeedMaxMPH,PrecipitationSumIn
2013-3-1,29,26,24,24,20,19,84,81,78,30.04,29.88,7,4,16,0.00
2013-3-2,25,24,21,20,18,16,89,79,75,30.03,29.98,5,2,12,0.00
2013-3-3,29,22,12,16,14,9,86,73,55,30.00,29.93,7,2,17,0.01
2013-3-4,35,21,8,18,13,4,89,73,46,30.10,30.00,3,0,9,0.07
2013-3-5,35,27,18,25,20,15,92,77,62,30.07,29.75,7,3,16,0.02
2013-3-6,38,32,26,29,26,21,85,79,68,30.14,29.77,6,2,15,0.00
2013-3-7,35,32,24,29,26,18,88,78,63,30.32,30.13,6,1,14,0.00
2013-3-8,43,29,16,28,22,13,90,75,55,30.43,30.32,3,0,7,0.00
2013-3-9,41,33,22,32,27,19,91,79,65,30.35,29.96,6,2,16,0.00
2013-3-10,60,50,37,47,39,31,80,66,58,29.96,29.70,8,2,28,0.01
2013-3-11,55,48,36,47,43,31,96,83,64,29.72,29.37,9,4,27,0.37
2013-3-12,36,33,29,32,28,24,88,82,74,29.84,29.59,7,2,16,0.02
2013-3-13,31,28,23,27,20,14,90,74,59,30.13,29.78,13,5,27,0.02
2013-3-14,40,30,20,24,19,13,82,64,46,30.20,30.01,8,2,15,0.00
2013-3-15,38,34,28,33,28,20,92,81,63,30.02,29.75,6,2,15,0.05
2013-3-16,33,29,27,30,26,22,92,87,79,29.97,29.68,4,2,12,0.06
2013-3-17,33,26,16,23,17,12,87,69,53,30.20,29.96,7,2,18,0.06
2013-3-18,34,29,21,34,26,15,99,86,74,30.11,29.48,10,4,26,0.07
2013-3-19,34,26,22,30,19,15,89,74,64,29.87,29.54,10,6,28,0.00
2013-3-20,27,24,16,18,15,9,79,69,59,29.88,29.83,10,4,19,0.00
2013-3-21,31,23,14,23,17,9,86,79,68,29.88,29.80,9,4,21,0.00
2013-3-22,39,30,25,25,21,17,83,69,53,29.95,29.87,6,3,17,0.00
2013-3-23,35,28,20,25,22,17,90,78,65,30.04,29.95,4,1,11,0.00
2013-3-24,36,28,20,27,22,17,90,78,58,29.98,29.56,7,2,17,0.00
2013-3-25,39,34,30,29,26,23,81,74,62,29.84,29.49,12,4,22,0.00
2013-3-26,43,35,31,32,28,26,85,76,57,30.04,29.84,7,2,17,0.00
2013-3-27,45,37,29,30,27,24,86,69,50,30.14,30.04,10,4,22,0.00
2013-3-28,51,40,29,31,27,23,81,61,43,30.19,30.13,7,2,16,0.00
2013-3-29,52,37,22,28,24,19,87,61,36,30.21,30.11,6,1,14,0.00
2013-3-30,55,39,21,32,25,18,92,60,31,30.15,29.85,5,1,14,0.00
2013-3-31,58,45,34,43,34,28,89,68,43,29.85,29.53,13,2,25,0.03